Airfield :
LOGIN :

Register | Disclaimer

   EN    FR    IT 

 










Legend :    VFR   Marginal VFR   IFR   Intensive IFR   Very Intensive IFR
Visi :
Ceiling :
>= 8 km
>= 3000ft
5 to 8 km
1000 to 3000 ft
1500m to 5 km
500 to 1000 ft
800 to 1500m
200 to 500 ft
< 800m
< 200 ft
Symbols :   Thunderstorms  Fog  Heavy snow  Heavy precipitations  Wind > 20 kt
SIGMETs :     Misc.  Thunderstorms  Icing  Turbulence  Mountain Waves  Volcanic Ashes






- Airport Elevation : 187 ft


LPMR - Monte Real Air Base

CURRENT METAR :
  • 231200Z 01008KT CAVOK 21/M01 Q1019

EXPIRED METARs :
  • 231100Z 06005KT 360V100 CAVOK 20/M02 Q1019
  • 231000Z 10004KT CAVOK 19/M02 Q1019
  • 230900Z 12007KT 090V150 CAVOK 17/M02 Q1019
  • 230800Z 11004KT CAVOK 15/M00 Q1019

TAF TAF LPMR
Valid from the 23 at 12:00 until the 24 at 12:00 UTC


231108Z 2312/2412 06005KT CAVOK
BECMG 2312/2314 34012KT
TEMPO 2314/2318 35015G25KT
BECMG 2318/2320 36005KT
BECMG 2400/2402 11005KT
BECMG 2410/2412 35008KT



MET'MAP, your aeronautical weather chart ! - Copyright ORBIFLY December 2007 - Disclaimer

ORBIFLY MET'MAP TEAM :

Programming & Development : Alexandra Zaïnal
Original concept : Baudouin d'Aumeries
Technical & hardware support : Manuel Goepfert
Assistance : Marc-Olivier Méhu




SOURCES & CREDITS :

   NOAA